LIMZ 192350Z AUTO 21005KT 9999 BKN058/// 19/16 Q1027 LIMZ 192320Z AUTO 22004KT 9999 BKN058/// 19/16 Q1027 LIMZ 192250Z AUTO 23004KT 9999 BKN056/// 19/16 Q1027 LIMZ 192220Z AUTO 23004KT 9999 OVC061/// 19/16 Q1027 LIMZ 192150Z AUTO 23003KT 9999 OVC053/// 20/16 Q1027 LIMZ 192120Z AUTO 23004KT 9999 BKN059/// 20/16 Q1027 LIMZ 192050Z AUTO 23003KT 9999 BKN058/// 20/17 Q1027 LIMZ 192020Z AUTO 26003KT 9999 BKN052/// 21/17 Q1027 LIMZ 191950Z AUTO 28004KT 9999 BKN051/// 21/16 Q1027 LIMZ 191920Z AUTO 27004KT 9999 BKN051/// BKN160/// 21/16 Q1026 LIMZ 191850Z AUTO 29003KT 9999 FEW055/// 22/16 Q1026 LIMZ 191820Z AUTO VRB02KT 9999 FEW056/// 23/15 Q1026 LIMZ 191750Z AUTO VRB01KT 9999 NCD 24/14 Q1025 LIMZ 191720Z AUTO VRB02KT 9999 NCD 23/17 Q1025 LIMZ 191650Z AUTO 22002KT 9999 NCD 24/12 Q1025 LIMZ 191620Z AUTO VRB02KT 9999 NCD 25/12 Q1025 LIMZ 191550Z AUTO VRB02KT 9999 NCD 25/12 Q1025 LIMZ 191520Z AUTO VRB02KT 9999 NCD 25/12 Q1025 LIMZ 191450Z AUTO VRB02KT 9999 NCD 26/14 Q1025 LIMZ 191420Z AUTO VRB02KT 9999 NCD 26/12 Q1026 LIMZ 191350Z AUTO VRB04KT 9999 NCD 25/14 Q1026 LIMZ 191320Z AUTO 10003KT 040V200 9999 NCD 25/13 Q1026 LIMZ 191250Z AUTO 34003KT 280V090 9999 NCD 25/12 Q1026 LIMZ 191220Z AUTO VRB04KT 9999 NCD 24/12 Q1027 LIMZ 191150Z AUTO 34004KT 280V040 9999 NCD 24/12 Q1027 LIMZ 191120Z AUTO 34005KT 290V030 9999 NCD 24/12 Q1027 LIMZ 191050Z AUTO 33004KT 270V040 9999 NCD 23/13 Q1027 LIMZ 191020Z AUTO 33005KT 280V050 9999 NCD 23/11 Q1028 LIMZ 190950Z AUTO 01005KT 340V050 9999 NCD 23/13 Q1028 LIMZ 190920Z AUTO VRB04KT 9999 NCD 23/13 Q1028 LIMZ 190850Z AUTO 33005KT 280V030 9999 NCD 22/12 Q1028 LIMZ 190820Z AUTO 27003KT 210V320 9999 NCD 22/13 Q1028 LIMZ 190750Z AUTO VRB03KT 9999 NCD 22/13 Q1028 LIMZ 190720Z AUTO 26005KT 220V290 9999 NCD 21/15 Q1028 LIMZ 190650Z AUTO 22004KT 190V260 9999 SCT110/// 20/16 Q1028 LIMZ 190620Z AUTO 22004KT 190V250 9999 SCT110/// 18/16 Q1028 LIMZ 190550Z AUTO 22004KT 190V250 9999 SCT100/// 17/17 Q1028 LIMZ 190520Z AUTO 19003KT 160V240 9999 -RA FEW059/// OVC100/// 17/15 Q1028 LIMZ 190450Z AUTO VRB01KT 9999 -RA BKN100/// 17/15 Q1028 LIMZ 190420Z AUTO VRB02KT 9999 FEW038/// BKN100/// 17/15 Q1027 LIMZ 190350Z AUTO VRB02KT 9999 -DZ OVC094/// 16/15 Q1027 LIMZ 190320Z AUTO 33005KT 300V360 9999 -RA OVC091/// 17/15 Q1027 LIMZ 190250Z AUTO 29004KT 250V350 9999 -RA OVC088/// 17/16 Q1027 RERA LIMZ 190220Z AUTO 26005KT 9999 RA OVC095/// 17/17 Q1027 LIMZ 190150Z AUTO 28005KT 9999 -RA FEW079/// OVC100/// 17/17 Q1026 LIMZ 190120Z AUTO 28005KT 9999 -RA FEW036/// SCT067/// OVC097/// 17/17 Q1026 RERA LIMZ 190050Z AUTO 28005KT 250V340 4500 +RA VCTS FEW027/// BKN051/// BKN083/// 17/17 Q1026 RETS LIMZ 190020Z AUTO 26005KT 9999 -TSRA BKN049/// 18/17 Q1026 LIMZ 182350Z AUTO VRB01KT 9999 -RA VCTS BKN056/// 20/17 Q1025 RETS LIMZ 182320Z AUTO 33003KT 300V360 9999 BKN053/// 20/17 Q1025 LIMZ 182250Z AUTO 01004KT 9999 OVC053/// 20/17 Q1025 LIMZ 182220Z AUTO 34005KT 9999 BKN057/// 20/17 Q1025 LIMZ 182150Z AUTO 33005KT 290V020 9999 VCTS FEW059/// SCT072/// BKN110/// 20/17 Q1024 LIMZ 182120Z AUTO 33006KT 9999 -RA VCTS OVC093/// 20/17 Q1024 RERA LIMZ 182050Z AUTO 32006KT 290V360 9999 FEW061/// BKN086/// 21/16 Q1024 LIMZ 182020Z AUTO 29005KT 260V340 9999 OVC054/// 21/16 Q1024 RETS LIMZ 181950Z AUTO 31005KT 9999 TS BKN057/// BKN180/// 21/17 Q1023 LIMZ 181920Z AUTO 31003KT 270V350 9999 TS BKN060/// 22/17 Q1022 RERA LIMZ 181850Z AUTO VRB03KT 9999 2500NE TSRA BKN057/// BKN071/// 22/17 Q1022 LIMZ 181820Z AUTO VRB03KT 9999 BKN063/// 23/17 Q1021 LIMZ 181750Z AUTO 31003KT 270V010 9999 BKN064/// BKN230/// 25/16 Q1021 LIMZ 181720Z AUTO 06005KT 9999 VCTS FEW066/// SCT220/// 25/16 Q1021 LIMZ 181650Z AUTO 07006KT 9999 NCD 25/15 Q1020 RETS LIMZ 181620Z AUTO 07005KT 9999 NCD 26/15 Q1020 LIMZ 181550Z AUTO 06005KT 030V090 9999 NCD 27/15 Q1020 LIMZ 181520Z AUTO 05005KT 020V090 9999 NCD 28/12 Q1020 LIMZ 181450Z AUTO 06007KT 030V090 9999 NCD 28/14 Q1020 LIMZ 181420Z AUTO 07005KT 020V160 9999 FEW056/// 27/14 Q1020 LIMZ 181350Z AUTO 08005KT 010V120 9999 NCD 27/18 Q1021 LIMZ 181320Z AUTO 04006KT 330V090 9999 FEW047/// BKN088/// 27/18 Q1021 LIMZ 181250Z AUTO VRB05KT 9999 FEW049/// 27/17 Q1021 LIMZ 181220Z AUTO 04005KT 300V100 9999 NCD 27/18 Q1021

METAR Messwerte "LEVALDIGI" LIMZ

Zurück zur Übersicht

Ortsname
Ländercode / m ü. NN
Zeit Temperatur Taupunkt Rel.
Luftfeuchte
Luftdruck:
Altimeter
NN
Station
Wind in Beaufort
(Knoten)
Sichtweite
(Meter)
Wolken
(Meter über Grund)
Wettererscheinung
LEVALDIGI
IT 377
Fr 20.05. 01:50191683 %1027
1026
982
SSW 2 (5)>= 10000Stark bewölkt (1800) 
LEVALDIGI
IT 377
Fr 20.05. 01:20191683 %1027
1026
982
SW 2 (4)>= 10000Stark bewölkt (1800) 
LEVALDIGI
IT 377
Fr 20.05. 00:50191683 %1027
1026
982
SW 2 (4)>= 10000Stark bewölkt (1700) 
LEVALDIGI
IT 377
Fr 20.05. 00:20191683 %1027
1026
982
SW 2 (4)>= 10000Bedeckt (1900) 
LEVALDIGI
IT 377
Do 19.05. 23:50201678 %1027
1026
982
SW 2 (3)>= 10000Bedeckt (1600) 
LEVALDIGI
IT 377
Do 19.05. 23:20201678 %1027
1026
982
SW 2 (4)>= 10000Stark bewölkt (1800) 
LEVALDIGI
IT 377
Do 19.05. 22:50201783 %1027
1026
982
SW 2 (3)>= 10000Stark bewölkt (1800) 
LEVALDIGI
IT 377
Do 19.05. 22:20211778 %1027
1026
982
W 2 (3)>= 10000Stark bewölkt (1600) 
LEVALDIGI
IT 377
Do 19.05. 21:50211673 %1027
1026
982
W 2 (4)>= 10000Stark bewölkt (1600) 
LEVALDIGI
IT 377
Do 19.05. 21:20211673 %1026
1025
981
W 2 (4)>= 10000Stark bewölkt (4900)
Stark bewölkt (1600)
 
LEVALDIGI
IT 377
Do 19.05. 20:50221669 %1026
1025
981
WNW 2 (3)>= 10000Leicht bewölkt (1700) 
LEVALDIGI
IT 377
Do 19.05. 20:20231561 %1026
1025
981
Uml 1 (2)>= 10000Leicht bewölkt (1700) 
LEVALDIGI
IT 377
Do 19.05. 19:50241454 %1025
1024
980
Uml 1 (1)>= 10000  
LEVALDIGI
IT 377
Do 19.05. 19:20231769 %1025
1024
980
Uml 1 (2)>= 10000  
LEVALDIGI
IT 377
Do 19.05. 18:50241247 %1025
1024
980
SW 1 (2)>= 10000  
LEVALDIGI
IT 377
Do 19.05. 18:20251244 %1025
1024
980
Uml 1 (2)>= 10000  
LEVALDIGI
IT 377
Do 19.05. 17:50251244 %1025
1024
980
Uml 1 (2)>= 10000  
LEVALDIGI
IT 377
Do 19.05. 17:20251244 %1025
1024
980
Uml 1 (2)>= 10000  
LEVALDIGI
IT 377
Do 19.05. 16:50261448 %1025
1023
980
Uml 1 (2)>= 10000  
LEVALDIGI
IT 377
Do 19.05. 16:20261242 %1026
1024
981
Uml 1 (2)>= 10000  
LEVALDIGI
IT 377
Do 19.05. 15:50251450 %1026
1025
981
Uml 2 (4)>= 10000  
LEVALDIGI
IT 377
Do 19.05. 15:20251347 %1026
1025
981
O 2 (3)
NO - SSW
>= 10000  
LEVALDIGI
IT 377
Do 19.05. 14:50251244 %1026
1025
981
NNW 2 (3)
W - O
>= 10000  
LEVALDIGI
IT 377
Do 19.05. 14:20241247 %1027
1026
982
Uml 2 (4)>= 10000  
LEVALDIGI
IT 377
Do 19.05. 13:50241247 %1027
1026
982
NNW 2 (4)
W - NO
>= 10000  
LEVALDIGI
IT 377
Do 19.05. 13:20241247 %1027
1026
982
NNW 2 (5)
WNW - NNO
>= 10000  
LEVALDIGI
IT 377
Do 19.05. 12:50231353 %1027
1026
982
NNW 2 (4)
W - NO
>= 10000  
LEVALDIGI
IT 377
Do 19.05. 12:20231147 %1028
1027
983
NNW 2 (5)
W - NO
>= 10000  
LEVALDIGI
IT 377
Do 19.05. 11:50231353 %1028
1027
983
N 2 (5)
NNW - NO
>= 10000  
LEVALDIGI
IT 377
Do 19.05. 11:20231353 %1028
1027
983
Uml 2 (4)>= 10000  
LEVALDIGI
IT 377
Do 19.05. 10:50221253 %1028
1027
983
NNW 2 (5)
W - NNO
>= 10000  
LEVALDIGI
IT 377
Do 19.05. 10:20221357 %1028
1027
983
W 2 (3)
SSW - NW
>= 10000  
LEVALDIGI
IT 377
Do 19.05. 09:50221357 %1028
1027
983
Uml 2 (3)>= 10000  
LEVALDIGI
IT 377
Do 19.05. 09:20211569 %1028
1027
983
W 2 (5)
SW - WNW
>= 10000  
LEVALDIGI
IT 377
Do 19.05. 08:50201678 %1028
1027
983
SW 2 (4)
S - W
>= 10000Wolkig (3400) 
LEVALDIGI
IT 377
Do 19.05. 08:20181688 %1028
1028
983
SW 2 (4)
S - WSW
>= 10000Wolkig (3400) 
LEVALDIGI
IT 377
Do 19.05. 07:501717100 %1028
1028
983
SW 2 (4)
S - WSW
>= 10000Wolkig (3000) 
LEVALDIGI
IT 377
Do 19.05. 07:20171588 %1028
1028
983
S 2 (3)
SSO - WSW
>= 10000Bedeckt (3000)
Leicht bewölkt (1800)
Regen (schwach)
LEVALDIGI
IT 377
Do 19.05. 06:50171588 %1028
1028
983
Uml 1 (1)>= 10000Stark bewölkt (3000)Regen (schwach)
LEVALDIGI
IT 377
Do 19.05. 06:20171588 %1027
1027
982
Uml 1 (2)>= 10000Stark bewölkt (3000)
Leicht bewölkt (1200)
 
LEVALDIGI
IT 377
Do 19.05. 05:50161594 %1027
1027
982
Uml 1 (2)>= 10000Bedeckt (2900)Nieselregen (schwach)
LEVALDIGI
IT 377
Do 19.05. 05:20171588 %1027
1027
982
NNW 2 (5)
WNW - N
>= 10000Bedeckt (2800)Regen (schwach)
LEVALDIGI
IT 377
Do 19.05. 04:50171694 %1027
1027
982
WNW 2 (4)
WSW - N
>= 10000Bedeckt (2700)Regen (schwach)
LEVALDIGI
IT 377
Do 19.05. 04:201717100 %1027
1027
982
W 2 (5)>= 10000Bedeckt (2900)Regen
LEVALDIGI
IT 377
Do 19.05. 03:501717100 %1026
1026
981
W 2 (5)>= 10000Bedeckt (3000)
Leicht bewölkt (2400)
Regen (schwach)
LEVALDIGI
IT 377
Do 19.05. 03:201717100 %1026
1026
981
W 2 (5)>= 10000Bedeckt (3000)
Wolkig (2000)
Leicht bewölkt (1100)
Regen (schwach)
LEVALDIGI
IT 377
Do 19.05. 02:501717100 %1026
1026
981
W 2 (5)
WSW - NNW
4500Stark bewölkt (2500)
Stark bewölkt (1600)
Leicht bewölkt (820)
Regen (stark)
LEVALDIGI
IT 377
Do 19.05. 02:20181794 %1026
1026
981
W 2 (5)>= 10000Stark bewölkt (1500)Gewitter mit Regen (schwach)
LEVALDIGI
IT 377
Do 19.05. 01:50201783 %1025
1024
980
Uml 1 (1)>= 10000Stark bewölkt (1700)Regen (schwach)
LEVALDIGI
IT 377
Do 19.05. 01:20201783 %1025
1024
980
NNW 2 (3)
WNW - N
>= 10000Stark bewölkt (1600) 
LEVALDIGI
IT 377
Do 19.05. 00:50201783 %1025
1024
980
N 2 (4)>= 10000Bedeckt (1600) 
LEVALDIGI
IT 377
Do 19.05. 00:20201783 %1025
1024
980
NNW 2 (5)>= 10000Stark bewölkt (1700) 
LEVALDIGI
IT 377
Mi 18.05. 23:50201783 %1024
1023
979
NNW 2 (5)
WNW - NNO
>= 10000Stark bewölkt (3400)
Wolkig (2200)
Leicht bewölkt (1800)
 
LEVALDIGI
IT 377
Mi 18.05. 23:20201783 %1024
1023
979
NNW 2 (6)>= 10000Bedeckt (2800)Regen (schwach)
LEVALDIGI
IT 377
Mi 18.05. 22:50211673 %1024
1023
979
NW 2 (6)
WNW - N
>= 10000Stark bewölkt (2600)
Leicht bewölkt (1900)
 
LEVALDIGI
IT 377
Mi 18.05. 22:20211673 %1024
1023
979
WNW 2 (5)
W - NNW
>= 10000Bedeckt (1600) 
LEVALDIGI
IT 377
Mi 18.05. 21:50211778 %1023
1022
978
NW 2 (5)>= 10000Stark bewölkt (5500)
Stark bewölkt (1700)
 
LEVALDIGI
IT 377
Mi 18.05. 21:20221773 %1022
1021
977
NW 2 (3)
W - N
>= 10000Stark bewölkt (1800) 
LEVALDIGI
IT 377
Mi 18.05. 20:50221773 %1022
1021
977
Uml 2 (3)>= 10000Stark bewölkt (2200)
Stark bewölkt (1700)
Gewitter mit Regen
LEVALDIGI
IT 377
Mi 18.05. 20:20231769 %1021
1020
976
Uml 2 (3)>= 10000Stark bewölkt (1900) 
LEVALDIGI
IT 377
Mi 18.05. 19:50251657 %1021
1020
976
NW 2 (3)
W - N
>= 10000Stark bewölkt (7000)
Stark bewölkt (2000)
 
LEVALDIGI
IT 377
Mi 18.05. 19:20251657 %1021
1020
976
ONO 2 (5)>= 10000Wolkig (6700)
Leicht bewölkt (2000)
 
LEVALDIGI
IT 377
Mi 18.05. 18:50251554 %1020
1019
975
ONO 2 (6)>= 10000  
LEVALDIGI
IT 377
Mi 18.05. 18:20261551 %1020
1018
975
ONO 2 (5)>= 10000  
LEVALDIGI
IT 377
Mi 18.05. 17:50271548 %1020
1018
975
ONO 2 (5)
NNO - O
>= 10000  
LEVALDIGI
IT 377
Mi 18.05. 17:20281237 %1020
1018
975
NO 2 (5)
NNO - O
>= 10000  
LEVALDIGI
IT 377
Mi 18.05. 16:50281442 %1020
1018
975
ONO 3 (7)
NNO - O
>= 10000  
LEVALDIGI
IT 377
Mi 18.05. 16:20271445 %1020
1018
975
ONO 2 (5)
NNO - SSO
>= 10000Leicht bewölkt (1700) 
LEVALDIGI
IT 377
Mi 18.05. 15:50271858 %1021
1019
976
O 2 (5)
N - OSO
>= 10000  
LEVALDIGI
IT 377
Mi 18.05. 15:20271858 %1021
1019
976
NO 2 (6)
NNW - O
>= 10000Stark bewölkt (2700)
Leicht bewölkt (1400)
 
LEVALDIGI
IT 377
Mi 18.05. 14:50271754 %1021
1019
976
Uml 2 (5)>= 10000Leicht bewölkt (1500) 
LEVALDIGI
IT 377
Mi 18.05. 14:20271858 %1021
1019
976
NO 2 (5)
WNW - O
>= 10000  

Altimeter: Einstellung am Altimeter (Höhenmesser), die Höhe 0 muss auf diesen Luftdruckwert zeigen, damit das Gerät die Stationshöhe richtig anzeigt.

NN: Luftdruck reduziert auf "Normal Null", auf Meereshöhe, dieser von der Temperatur abhängige Wert wird bisweilen unkorrekt einfach als "Luftdruck" bezeichnet. Eigentlich nur eine fiktive Größe, die es erlaubt, Stationen auf unterschiedlichen Höhen miteinander zu vergleichen.

Station: Realer Luftdruck an der Station.